Time;durP1;ratioP1;P1;durP2;ratioP2;P2;SDS_P1;SDS_P2;PMS_P1;PMS_P2;Temp;Humidity;BMP_temperature;BMP_pressure;BME280_temperature;BME280_humidity;BME280_pressure;Samples;Min_cycle;Max_cycle;Signal;HPM_P1;HPM_P2
2023/06/14 00:02:01;;;;;;;3.60;2.73;;;14.00;99.90;;;;;;5043007;28;20350;-80
2023/06/14 00:04:28;;;;;;;4.60;2.80;;;14.00;99.90;;;;;;5040509;28;20951;-80
2023/06/14 00:06:56;;;;;;;6.00;3.03;;;14.00;99.90;;;;;;5022878;28;20236;-80
2023/06/14 00:09:23;;;;;;;4.60;2.20;;;13.90;99.90;;;;;;5031002;28;20240;-80
2023/06/14 00:11:50;;;;;;;4.27;2.50;;;13.90;99.90;;;;;;5035243;28;20341;-79
2023/06/14 00:14:18;;;;;;;3.00;2.33;;;13.90;99.90;;;;;;5036950;28;20219;-80
2023/06/14 00:16:45;;;;;;;4.03;2.40;;;13.80;99.90;;;;;;5036994;28;20224;-81
2023/06/14 00:19:12;;;;;;;4.87;2.97;;;13.80;99.90;;;;;;5040112;28;20746;-80
2023/06/14 00:21:39;;;;;;;4.43;2.63;;;13.80;99.90;;;;;;5041847;28;20242;-80
2023/06/14 00:24:06;;;;;;;4.20;2.50;;;13.80;99.90;;;;;;5045692;28;20682;-80
2023/06/14 00:26:33;;;;;;;5.23;2.37;;;13.80;99.90;;;;;;5043374;28;20240;-80
2023/06/14 00:29:02;;;;;;;3.10;2.53;;;13.70;99.90;;;;;;5044671;28;20227;-81
2023/06/14 00:31:30;;;;;;;8.33;2.80;;;13.70;99.90;;;;;;5038180;28;20324;-80
2023/06/14 00:33:57;;;;;;;4.90;2.57;;;13.70;99.90;;;;;;5047230;28;20865;-81
2023/06/14 00:36:24;;;;;;;4.67;2.57;;;13.60;99.90;;;;;;5044557;28;20309;-80
2023/06/14 00:38:50;;;;;;;4.63;2.73;;;13.60;99.90;;;;;;5045482;28;20220;-80
2023/06/14 00:41:17;;;;;;;4.73;2.53;;;13.60;99.90;;;;;;5043665;28;20789;-80
2023/06/14 00:43:44;;;;;;;5.10;2.73;;;13.60;99.90;;;;;;5045276;28;20356;-80
2023/06/14 00:46:10;;;;;;;5.97;3.20;;;13.60;99.90;;;;;;5046692;28;20216;-81
2023/06/14 00:48:40;;;;;;;5.37;2.90;;;13.50;99.90;;;;;;5046201;28;20263;-81
2023/06/14 00:51:07;;;;;;;6.77;3.00;;;13.50;99.90;;;;;;5043538;28;20753;-81
2023/06/14 00:53:35;;;;;;;4.17;2.40;;;13.50;99.90;;;;;;5046322;28;20785;-80
2023/06/14 00:56:02;;;;;;;4.23;2.80;;;13.50;99.90;;;;;;5044765;28;20307;-79
2023/06/14 00:58:29;;;;;;;6.47;3.20;;;13.40;99.90;;;;;;5038829;28;20985;-79
2023/06/14 01:00:57;;;;;;;7.87;3.10;;;13.40;99.90;;;;;;5041851;28;20227;-80
2023/06/14 01:03:25;;;;;;;4.47;2.60;;;13.40;99.90;;;;;;5040484;28;20883;-79
2023/06/14 01:06:02;;;;;;;5.00;2.63;;;13.40;99.90;;;;;;5043612;28;20227;-80
2023/06/14 01:08:38;;;;;;;3.37;2.70;;;13.40;99.90;;;;;;5040702;28;20312;-80
2023/06/14 01:11:11;;;;;;;3.13;2.60;;;13.30;99.90;;;;;;5041833;28;20315;-80
2023/06/14 01:13:41;;;;;;;3.60;2.30;;;13.30;99.90;;;;;;5038171;28;20298;-80
2023/06/14 01:16:09;;;;;;;6.00;3.03;;;13.30;99.90;;;;;;5039709;28;20235;-80
2023/06/14 01:18:37;;;;;;;4.17;2.93;;;13.30;99.90;;;;;;5041210;28;20227;-80
2023/06/14 01:21:06;;;;;;;4.27;2.60;;;13.20;99.90;;;;;;5043403;28;20220;-80
2023/06/14 01:23:34;;;;;;;3.70;2.70;;;13.20;99.90;;;;;;5042600;28;20722;-80
2023/06/14 01:26:03;;;;;;;4.73;3.13;;;13.20;99.90;;;;;;5045162;28;20944;-80
2023/06/14 01:28:33;;;;;;;4.73;2.50;;;13.10;99.90;;;;;;5042768;28;20314;-80
2023/06/14 01:31:04;;;;;;;4.73;2.70;;;13.10;99.90;;;;;;5044374;28;20224;-80
2023/06/14 01:33:33;;;;;;;4.70;2.97;;;13.10;99.90;;;;;;5044953;28;20229;-80
2023/06/14 01:36:02;;;;;;;4.00;2.73;;;13.00;99.90;;;;;;5037687;28;20219;-82
2023/06/14 01:38:32;;;;;;;6.47;3.10;;;13.00;99.90;;;;;;5038014;28;20219;-82
2023/06/14 01:41:02;;;;;;;7.67;2.90;;;13.00;99.90;;;;;;5041965;28;20222;-82
2023/06/14 01:43:31;;;;;;;4.63;3.27;;;12.90;99.90;;;;;;5029990;28;20397;-81
2023/06/14 01:45:59;;;;;;;5.50;3.30;;;12.90;99.90;;;;;;5041605;28;20292;-81
2023/06/14 01:48:28;;;;;;;6.27;2.77;;;12.90;99.90;;;;;;5042331;28;20230;-80
2023/06/14 01:50:54;;;;;;;4.10;2.90;;;12.90;99.90;;;;;;5041950;28;20775;-80
2023/06/14 01:53:22;;;;;;;7.30;3.10;;;12.80;99.90;;;;;;5036371;28;20217;-80
2023/06/14 01:55:49;;;;;;;5.23;3.00;;;12.80;99.90;;;;;;5044542;28;20229;-80
2023/06/14 01:58:17;;;;;;;5.70;2.90;;;12.80;99.90;;;;;;5041337;28;20296;-79
2023/06/14 02:00:45;;;;;;;4.30;3.10;;;12.80;99.90;;;;;;5041440;28;20221;-79
2023/06/14 02:03:12;;;;;;;4.40;2.77;;;12.80;99.90;;;;;;5034805;28;20231;-79
2023/06/14 02:05:40;;;;;;;6.70;3.00;;;12.80;99.90;;;;;;5041610;28;20624;-80
2023/06/14 02:08:07;;;;;;;7.37;3.47;;;12.80;99.90;;;;;;5044683;28;20586;-79
2023/06/14 02:10:34;;;;;;;7.20;3.57;;;12.70;99.90;;;;;;5036929;28;20930;-79
2023/06/14 02:13:01;;;;;;;3.97;2.83;;;12.70;99.90;;;;;;5045438;28;20317;-79
2023/06/14 02:15:33;;;;;;;7.30;3.57;;;12.70;99.90;;;;;;5041792;28;20324;-79
2023/06/14 02:18:02;;;;;;;6.93;3.67;;;12.60;99.90;;;;;;5042768;28;20752;-80
2023/06/14 02:20:29;;;;;;;6.67;3.20;;;12.60;99.90;;;;;;5035736;28;20273;-79
2023/06/14 02:22:58;;;;;;;5.77;3.20;;;12.60;99.90;;;;;;5041457;28;20218;-80
2023/06/14 02:25:27;;;;;;;5.83;3.20;;;12.60;99.90;;;;;;5039250;28;20241;-80
2023/06/14 02:27:53;;;;;;;8.60;3.30;;;12.60;99.90;;;;;;5037026;28;20222;-80
2023/06/14 02:30:20;;;;;;;6.77;3.33;;;12.60;99.90;;;;;;5046326;28;20220;-79
2023/06/14 02:32:50;;;;;;;6.53;2.97;;;12.50;99.90;;;;;;5035308;28;20268;-80
2023/06/14 02:35:17;;;;;;;5.00;3.57;;;12.50;99.90;;;;;;5042597;28;20222;-80
2023/06/14 02:37:44;;;;;;;7.53;3.60;;;12.50;99.90;;;;;;5040565;28;20224;-81
2023/06/14 02:40:12;;;;;;;7.07;3.90;;;12.50;99.90;;;;;;5041598;28;20979;-80
2023/06/14 02:42:38;;;;;;;6.10;3.50;;;12.50;99.90;;;;;;5038436;28;20238;-81
2023/06/14 02:45:06;;;;;;;5.47;3.60;;;12.40;99.90;;;;;;5040825;28;20233;-80
2023/06/14 02:47:33;;;;;;;6.53;3.40;;;12.40;99.90;;;;;;5042073;28;20232;-79
2023/06/14 02:50:02;;;;;;;6.43;3.60;;;12.40;99.90;;;;;;5043202;28;20227;-80
2023/06/14 02:52:29;;;;;;;5.10;3.13;;;12.40;99.90;;;;;;5040701;28;20225;-80
2023/06/14 02:54:56;;;;;;;5.63;3.53;;;12.40;99.90;;;;;;5043502;28;20233;-78
2023/06/14 02:57:24;;;;;;;5.60;3.30;;;12.40;99.90;;;;;;5040668;28;20249;-79
2023/06/14 02:59:51;;;;;;;5.47;3.33;;;12.40;99.90;;;;;;5042568;28;20240;-79
2023/06/14 03:02:18;;;;;;;5.50;3.53;;;12.30;99.90;;;;;;5047224;28;20860;-78
2023/06/14 03:04:46;;;;;;;7.50;3.90;;;12.30;99.90;;;;;;5045451;28;20303;-80
2023/06/14 03:07:19;;;;;;;9.43;3.90;;;12.30;99.90;;;;;;5044726;28;20247;-78
2023/06/14 03:09:48;;;;;;;6.87;3.30;;;12.30;99.90;;;;;;5043957;28;20623;-79
2023/06/14 03:12:16;;;;;;;9.53;3.77;;;12.30;99.90;;;;;;5041209;28;20629;-79
2023/06/14 03:14:46;;;;;;;5.83;3.63;;;12.30;99.90;;;;;;5042943;28;20243;-79
2023/06/14 03:17:15;;;;;;;5.03;3.63;;;12.30;99.90;;;;;;5040179;28;20848;-79
2023/06/14 03:19:42;;;;;;;6.33;3.57;;;12.30;99.90;;;;;;5041197;28;20231;-79
2023/06/14 03:22:11;;;;;;;5.47;3.53;;;12.30;99.90;;;;;;5046037;28;20224;-78
2023/06/14 03:24:41;;;;;;;6.27;3.77;;;12.30;99.90;;;;;;5037557;28;20748;-78
2023/06/14 03:27:14;;;;;;;8.10;3.70;;;12.30;99.90;;;;;;5038685;28;20214;-78
2023/06/14 03:29:44;;;;;;;4.97;3.43;;;12.30;99.90;;;;;;5037483;28;21178;-80
2023/06/14 03:32:11;;;;;;;5.90;3.73;;;12.30;99.90;;;;;;5044560;28;20224;-80
2023/06/14 03:34:42;;;;;;;4.67;3.33;;;12.30;99.90;;;;;;5050178;28;20231;-78
2023/06/14 03:37:14;;;;;;;7.17;3.67;;;12.30;99.90;;;;;;5047891;28;20317;-79
2023/06/14 03:39:46;;;;;;;7.23;3.87;;;12.30;99.90;;;;;;5042139;28;20240;-79
2023/06/14 03:42:15;;;;;;;9.70;4.07;;;12.40;99.90;;;;;;5041452;28;20897;-78
2023/06/14 03:44:43;;;;;;;7.27;3.90;;;12.40;99.90;;;;;;5041386;28;20220;-80
2023/06/14 03:47:11;;;;;;;6.07;3.67;;;12.40;99.90;;;;;;5047730;28;20222;-79
2023/06/14 03:49:37;;;;;;;4.53;3.50;;;12.40;99.90;;;;;;5052253;28;20234;-78
2023/06/14 03:52:05;;;;;;;7.40;3.60;;;12.40;99.90;;;;;;5049431;28;21021;-79
2023/06/14 03:54:33;;;;;;;8.00;3.57;;;12.50;99.90;;;;;;5050410;28;20226;-79
2023/06/14 03:57:02;;;;;;;6.90;3.37;;;12.50;99.90;;;;;;5052542;28;20985;-78
2023/06/14 03:59:29;;;;;;;6.13;3.97;;;12.60;99.90;;;;;;5046549;28;20261;-79
2023/06/14 04:01:56;;;;;;;6.37;3.63;;;12.60;99.90;;;;;;5050477;28;20214;-80
2023/06/14 04:04:29;;;;;;;6.83;3.90;;;12.60;99.90;;;;;;5050317;28;20328;-78
2023/06/14 04:06:58;;;;;;;8.70;3.60;;;12.60;99.90;;;;;;5049401;28;20213;-78
2023/06/14 04:09:25;;;;;;;7.77;3.87;;;12.70;99.90;;;;;;5046842;28;20240;-76
2023/06/14 04:11:53;;;;;;;7.30;3.80;;;12.70;99.90;;;;;;5051306;28;20234;-79
2023/06/14 04:14:21;;;;;;;10.63;4.90;;;12.80;99.90;;;;;;5039617;28;20246;-79
2023/06/14 04:16:49;;;;;;;7.10;3.97;;;12.80;99.90;;;;;;5040115;28;20685;-79
2023/06/14 04:19:18;;;;;;;6.23;3.93;;;12.90;99.90;;;;;;5048410;28;20218;-78
2023/06/14 04:21:45;;;;;;;7.03;3.27;;;12.90;99.90;;;;;;5051270;28;20283;-79
2023/06/14 04:24:13;;;;;;;4.40;3.50;;;12.90;99.90;;;;;;5047496;28;20763;-79
2023/06/14 04:26:44;;;;;;;11.10;4.00;;;13.00;99.90;;;;;;5049310;28;20223;-78
2023/06/14 04:29:14;;;;;;;8.27;3.77;;;13.00;99.90;;;;;;5047655;28;20219;-79
2023/06/14 04:31:44;;;;;;;4.87;3.53;;;13.10;99.90;;;;;;5047013;28;20316;-78
2023/06/14 04:34:16;;;;;;;5.37;3.53;;;13.10;99.90;;;;;;5042041;28;20269;-79
2023/06/14 04:36:49;;;;;;;6.23;3.40;;;13.10;99.90;;;;;;5055733;28;20689;-78
2023/06/14 04:39:17;;;;;;;7.90;3.67;;;13.20;99.90;;;;;;5049528;28;20220;-78
2023/06/14 04:41:44;;;;;;;9.47;4.13;;;13.20;99.90;;;;;;5048304;28;20222;-77
2023/06/14 04:44:12;;;;;;;6.20;4.03;;;13.20;99.90;;;;;;5049261;28;20299;-78
2023/06/14 04:46:45;;;;;;;8.10;4.23;;;13.30;99.90;;;;;;5046957;28;20257;-78
2023/06/14 04:49:16;;;;;;;7.13;4.27;;;13.30;99.90;;;;;;5045270;28;20705;-78
2023/06/14 04:51:43;;;;;;;6.23;3.90;;;13.40;99.90;;;;;;5047758;28;20239;-78
2023/06/14 04:54:13;;;;;;;7.53;3.77;;;13.40;99.90;;;;;;5044230;28;20218;-78
2023/06/14 04:56:42;;;;;;;7.27;3.93;;;13.50;99.90;;;;;;5044791;28;20224;-77
2023/06/14 04:59:11;;;;;;;5.57;3.50;;;13.50;99.90;;;;;;5044881;28;20223;-77
2023/06/14 05:01:38;;;;;;;5.73;4.00;;;13.60;99.90;;;;;;5034895;28;20211;-77
2023/06/14 05:04:06;;;;;;;5.70;3.80;;;13.60;99.90;;;;;;5041937;28;20319;-77
2023/06/14 05:06:33;;;;;;;4.53;3.57;;;13.60;99.90;;;;;;5043259;28;20318;-76
2023/06/14 05:09:00;;;;;;;6.33;3.57;;;13.70;99.90;;;;;;5031729;28;20870;-76
2023/06/14 05:11:27;;;;;;;8.53;3.90;;;13.70;99.90;;;;;;5039276;28;20224;-77
2023/06/14 05:13:54;;;;;;;7.23;3.57;;;13.80;99.90;;;;;;5035534;28;20302;-77
2023/06/14 05:16:25;;;;;;;5.53;3.60;;;13.90;99.90;;;;;;5035262;28;20255;-77
2023/06/14 05:18:52;;;;;;;7.40;3.80;;;14.00;99.90;;;;;;5036368;28;20230;-77
2023/06/14 05:21:20;;;;;;;7.60;4.10;;;14.00;99.90;;;;;;5036691;28;20217;-77
2023/06/14 05:23:46;;;;;;;7.27;4.10;;;14.10;99.90;;;;;;5036282;28;20320;-77
2023/06/14 05:26:13;;;;;;;5.47;3.90;;;14.10;99.90;;;;;;5034182;28;20334;-77
2023/06/14 05:28:40;;;;;;;7.60;3.90;;;14.20;99.90;;;;;;5040004;28;20232;-77
2023/06/14 05:31:07;;;;;;;8.33;4.00;;;14.30;99.90;;;;;;5036851;28;20224;-77
2023/06/14 05:33:34;;;;;;;6.47;3.77;;;14.30;99.90;;;;;;5037953;28;20321;-77
2023/06/14 05:36:02;;;;;;;5.80;3.40;;;14.40;99.90;;;;;;5043041;28;20212;-77
2023/06/14 05:38:30;;;;;;;5.15;3.38;;;14.40;99.90;;;;;;5033909;28;20228;-77
2023/06/14 05:40:57;;;;;;;5.17;3.00;;;14.50;99.90;;;;;;5033757;28;20251;-77
2023/06/14 05:43:24;;;;;;;6.63;3.67;;;14.60;99.90;;;;;;5038921;28;20251;-77
2023/06/14 05:45:51;;;;;;;7.00;3.23;;;14.60;99.90;;;;;;5045333;28;20220;-77
2023/06/14 05:48:18;;;;;;;5.13;3.20;;;14.70;99.90;;;;;;5039670;28;20316;-77
2023/06/14 05:50:45;;;;;;;7.03;3.57;;;14.70;99.90;;;;;;5039682;28;20322;-77
2023/06/14 05:53:12;;;;;;;3.97;3.10;;;14.80;99.90;;;;;;5038302;28;20300;-77
2023/06/14 05:55:40;;;;;;;7.10;2.80;;;14.90;99.90;;;;;;5034251;28;20737;-77
2023/06/14 05:58:07;;;;;;;4.32;2.92;;;15.00;99.90;;;;;;5035386;28;20311;-77
2023/06/14 06:00:34;;;;;;;4.97;3.17;;;15.10;99.90;;;;;;5036458;28;20231;-77
2023/06/14 06:03:00;;;;;;;6.53;3.30;;;15.10;99.90;;;;;;5021763;28;20228;-77
2023/06/14 06:05:27;;;;;;;3.83;3.17;;;15.20;99.90;;;;;;5037890;28;20333;-77
2023/06/14 06:07:54;;;;;;;4.63;2.80;;;15.30;99.90;;;;;;5040201;28;20327;-77
2023/06/14 06:10:21;;;;;;;6.00;3.08;;;15.40;99.90;;;;;;5038479;28;20811;-78
2023/06/14 06:12:51;;;;;;;3.92;2.92;;;15.50;99.90;;;;;;5036827;28;20217;-77
2023/06/14 06:15:18;;;;;;;4.35;3.00;;;15.50;99.90;;;;;;5034612;28;20304;-77
2023/06/14 06:17:45;;;;;;;5.90;2.58;;;15.60;99.90;;;;;;5040038;28;20646;-77
2023/06/14 06:20:13;;;;;;;4.80;2.70;;;15.60;99.90;;;;;;5032138;28;20322;-77
2023/06/14 06:22:39;;;;;;;4.38;2.67;;;15.70;99.90;;;;;;5036430;28;20339;-77
2023/06/14 06:25:08;;;;;;;4.80;3.20;;;15.70;99.90;;;;;;5034943;28;20367;-77
2023/06/14 06:27:35;;;;;;;6.28;2.90;;;15.80;99.90;;;;;;5032585;28;20253;-77
2023/06/14 06:30:04;;;;;;;5.65;3.35;;;15.80;99.90;;;;;;5026687;28;20293;-77
2023/06/14 06:32:31;;;;;;;5.35;2.90;;;16.00;99.90;;;;;;5033199;28;20256;-78
2023/06/14 06:34:59;;;;;;;5.22;3.00;;;16.10;99.90;;;;;;5038941;28;20311;-77
2023/06/14 06:37:26;;;;;;;3.45;2.30;;;16.30;99.90;;;;;;5040281;28;20224;-77
2023/06/14 06:39:52;;;;;;;7.45;2.70;;;16.40;99.90;;;;;;5034525;28;20236;-77
2023/06/14 06:42:19;;;;;;;5.68;2.75;;;16.60;99.90;;;;;;5036266;28;20327;-77
2023/06/14 06:44:50;;;;;;;5.15;2.00;;;16.70;99.90;;;;;;5037278;28;20220;-77
2023/06/14 06:47:18;;;;;;;4.32;2.45;;;16.80;99.90;;;;;;5033218;28;20224;-77
2023/06/14 06:49:45;;;;;;;4.57;2.20;;;16.90;99.90;;;;;;5042448;28;20254;-77
2023/06/14 06:52:11;;;;;;;2.85;2.10;;;17.00;99.90;;;;;;5032970;28;20377;-77
2023/06/14 06:54:38;;;;;;;3.30;2.42;;;17.10;99.90;;;;;;5034618;28;20222;-77
2023/06/14 06:57:05;;;;;;;4.32;2.22;;;17.20;99.90;;;;;;5038719;28;20220;-77
2023/06/14 06:59:32;;;;;;;3.05;2.00;;;17.40;99.90;;;;;;5038495;28;20228;-77
2023/06/14 07:01:59;;;;;;;3.22;2.10;;;17.70;99.90;;;;;;5038292;28;20212;-78
2023/06/14 07:04:27;;;;;;;3.05;2.00;;;18.00;99.90;;;;;;5035702;28;20887;-77
2023/06/14 07:06:54;;;;;;;3.05;1.90;;;18.50;99.80;;;;;;5037463;28;20232;-77
2023/06/14 07:09:20;;;;;;;2.13;1.90;;;19.10;99.70;;;;;;5036511;28;20314;-77
2023/06/14 07:11:48;;;;;;;4.18;2.20;;;19.80;99.00;;;;;;5037204;28;20862;-78
2023/06/14 07:14:15;;;;;;;4.00;1.80;;;20.70;97.90;;;;;;5041555;28;20247;-78
2023/06/14 07:16:42;;;;;;;2.78;2.00;;;21.50;97.00;;;;;;5039960;28;20315;-77
2023/06/14 07:19:10;;;;;;;2.25;1.60;;;22.30;95.50;;;;;;5041939;28;20246;-78
2023/06/14 07:21:38;;;;;;;2.50;1.70;;;23.10;94.30;;;;;;5035415;28;20297;-78
2023/06/14 07:24:06;;;;;;;2.60;1.80;;;23.90;92.90;;;;;;5038051;28;20721;-78
2023/06/14 07:26:33;;;;;;;2.17;1.98;;;24.70;91.80;;;;;;5032699;28;21523;-78
2023/06/14 07:28:59;;;;;;;2.97;1.73;;;25.50;89.70;;;;;;5037561;28;20243;-78
2023/06/14 07:31:26;;;;;;;3.08;1.92;;;26.20;87.60;;;;;;5040386;28;20228;-78
2023/06/14 07:33:53;;;;;;;1.90;1.70;;;26.90;84.10;;;;;;5036484;28;20286;-78
2023/06/14 07:36:19;;;;;;;3.83;1.90;;;27.50;81.20;;;;;;5036646;28;20223;-78
2023/06/14 07:38:48;;;;;;;3.55;1.98;;;28.00;77.20;;;;;;5028896;28;20266;-78
2023/06/14 07:41:15;;;;;;;2.85;1.80;;;28.40;74.90;;;;;;5032549;28;20232;-78
2023/06/14 07:43:41;;;;;;;2.22;1.95;;;28.90;73.00;;;;;;5037852;28;20398;-78
2023/06/14 07:46:09;;;;;;;2.08;1.77;;;29.30;70.70;;;;;;5036513;28;20237;-78
2023/06/14 07:48:35;;;;;;;2.20;1.92;;;29.70;70.10;;;;;;5038734;28;20287;-78
2023/06/14 07:51:02;;;;;;;5.18;2.05;;;30.10;68.20;;;;;;5037954;28;20230;-78
2023/06/14 07:53:30;;;;;;;2.20;1.85;;;30.50;66.60;;;;;;5035722;28;20289;-78
2023/06/14 07:55:58;;;;;;;2.78;1.90;;;30.90;65.30;;;;;;5032810;28;20224;-78
2023/06/14 07:58:25;;;;;;;2.15;1.67;;;31.30;63.20;;;;;;5033442;28;20232;-78
2023/06/14 08:00:52;;;;;;;3.28;1.90;;;31.60;61.10;;;;;;5037248;28;20282;-79
2023/06/14 08:03:19;;;;;;;2.13;1.75;;;31.80;59.90;;;;;;5037703;28;20224;-78
2023/06/14 08:05:46;;;;;;;3.00;1.92;;;32.00;59.90;;;;;;5034134;28;20789;-75
2023/06/14 08:08:12;;;;;;;4.43;1.70;;;32.30;59.20;;;;;;5035019;28;20220;-76
2023/06/14 08:10:39;;;;;;;4.95;1.90;;;32.40;57.50;;;;;;5033349;28;20683;-76
2023/06/14 08:13:09;;;;;;;5.45;2.35;;;32.60;56.50;;;;;;5035250;28;20865;-75
2023/06/14 08:15:35;;;;;;;3.47;2.03;;;32.60;54.30;;;;;;5039988;28;20270;-76
2023/06/14 08:18:02;;;;;;;3.40;2.17;;;32.50;54.30;;;;;;5035309;28;20216;-76
2023/06/14 08:20:30;;;;;;;4.50;2.10;;;32.40;54.20;;;;;;5033504;28;20228;-75
2023/06/14 08:22:57;;;;;;;4.40;2.03;;;32.20;54.10;;;;;;5035854;28;20843;-75
2023/06/14 08:25:23;;;;;;;2.88;2.17;;;32.20;54.50;;;;;;5035292;28;20323;-76
2023/06/14 08:27:50;;;;;;;3.22;1.95;;;32.20;54.40;;;;;;5031943;28;20251;-76
2023/06/14 08:30:18;;;;;;;5.07;2.50;;;32.30;54.70;;;;;;5039365;28;20227;-75
2023/06/14 08:32:45;;;;;;;5.13;2.50;;;32.50;54.60;;;;;;5036488;28;20224;-75
2023/06/14 08:35:12;;;;;;;2.42;1.88;;;32.80;53.90;;;;;;5038448;28;20227;-76
2023/06/14 08:37:42;;;;;;;4.93;2.20;;;33.10;53.40;;;;;;5041775;28;20319;-76
2023/06/14 08:40:21;;;;;;;5.32;2.50;;;33.20;52.10;;;;;;5033645;28;20220;-75
2023/06/14 08:42:50;;;;;;;3.08;2.10;;;33.20;50.80;;;;;;5035711;28;20347;-75
2023/06/14 08:45:19;;;;;;;3.13;2.20;;;33.00;50.50;;;;;;5040366;28;20254;-75
2023/06/14 08:47:51;;;;;;;5.18;2.08;;;32.70;50.60;;;;;;5039924;28;20227;-75
2023/06/14 08:50:20;;;;;;;3.63;2.08;;;32.50;51.30;;;;;;5055530;23;20863;-76
2023/06/14 08:52:52;;;;;;;5.20;2.50;;;32.50;51.80;;;;;;5045851;28;20234;-76
2023/06/14 08:55:20;;;;;;;4.15;2.42;;;32.50;50.70;;;;;;5041416;28;20216;-76
2023/06/14 08:57:49;;;;;;;3.83;2.38;;;32.50;50.90;;;;;;5041833;28;20223;-76
2023/06/14 09:00:17;;;;;;;3.88;2.22;;;32.50;50.70;;;;;;5045782;28;20231;-76
2023/06/14 09:02:46;;;;;;;4.13;2.10;;;32.50;49.20;;;;;;5041635;28;20313;-76
2023/06/14 09:05:13;;;;;;;4.43;2.00;;;32.40;49.40;;;;;;5041841;28;20899;-76
2023/06/14 09:07:41;;;;;;;5.20;2.40;;;32.30;49.90;;;;;;5042744;28;20243;-76
2023/06/14 09:10:10;;;;;;;5.85;2.50;;;32.30;50.40;;;;;;5041968;28;20741;-76
2023/06/14 09:12:37;;;;;;;3.50;2.28;;;32.40;49.90;;;;;;5025235;28;20240;-76
2023/06/14 09:15:06;;;;;;;6.10;2.63;;;32.50;50.00;;;;;;5049484;28;20724;-76
2023/06/14 09:17:35;;;;;;;5.45;2.38;;;32.60;49.30;;;;;;5043640;28;20293;-76
2023/06/14 09:20:06;;;;;;;3.00;2.30;;;32.70;49.30;;;;;;5024956;28;20725;-76
2023/06/14 09:22:33;;;;;;;2.65;2.38;;;32.70;48.40;;;;;;5042124;28;20219;-76
2023/06/14 09:25:00;;;;;;;5.35;2.33;;;32.80;49.10;;;;;;5045095;28;20892;-76
2023/06/14 09:27:27;;;;;;;2.92;2.40;;;32.90;48.90;;;;;;5037857;28;20229;-76
2023/06/14 09:29:54;;;;;;;6.10;2.00;;;33.10;48.80;;;;;;5042373;28;20227;-76
2023/06/14 09:32:22;;;;;;;8.23;2.30;;;33.10;48.00;;;;;;5040031;28;20725;-76
2023/06/14 09:34:49;;;;;;;5.45;2.40;;;33.10;47.40;;;;;;5039650;28;20224;-76
2023/06/14 09:37:30;;;;;;;3.58;2.30;;;32.90;47.60;;;;;;5022118;28;20228;-76
2023/06/14 09:39:57;;;;;;;3.45;2.70;;;32.90;47.70;;;;;;5040625;28;20239;-76
2023/06/14 09:42:25;;;;;;;3.30;2.20;;;33.00;48.30;;;;;;5040067;28;22634;-76
2023/06/14 09:44:53;;;;;;;4.50;2.33;;;33.20;48.10;;;;;;5042717;28;20274;-76
2023/06/14 09:47:20;;;;;;;5.28;2.67;;;33.50;47.70;;;;;;5023577;28;20579;-76
2023/06/14 09:49:47;;;;;;;3.75;2.53;;;33.70;46.20;;;;;;5041038;28;20725;-76
2023/06/14 09:52:16;;;;;;;3.40;2.50;;;33.70;45.60;;;;;;5036154;28;20215;-76
2023/06/14 09:54:47;;;;;;;4.45;2.38;;;33.50;45.40;;;;;;5035919;28;20228;-76
2023/06/14 09:57:14;;;;;;;4.40;2.40;;;33.20;46.00;;;;;;5038344;28;20278;-76
2023/06/14 09:59:43;;;;;;;6.18;2.22;;;33.10;46.60;;;;;;5041589;28;20240;-76
2023/06/14 10:02:17;;;;;;;6.32;2.40;;;33.10;46.80;;;;;;5041419;28;20659;-76
2023/06/14 10:04:51;;;;;;;3.40;2.50;;;33.10;46.60;;;;;;5038484;28;20220;-76
2023/06/14 10:07:21;;;;;;;2.50;2.10;;;33.10;45.90;;;;;;5041926;28;20215;-76
2023/06/14 10:09:50;;;;;;;3.67;2.35;;;33.20;46.30;;;;;;5040636;28;20270;-76
2023/06/14 10:12:20;;;;;;;5.57;2.60;;;33.20;46.40;;;;;;5042621;28;20991;-76
2023/06/14 10:14:50;;;;;;;2.63;2.40;;;33.40;46.40;;;;;;5044667;28;20224;-76
2023/06/14 10:17:26;;;;;;;4.65;2.90;;;33.50;46.50;;;;;;5043854;28;20216;-76
2023/06/14 10:19:58;;;;;;;3.78;2.65;;;33.70;45.80;;;;;;5042041;28;20721;-76
2023/06/14 10:22:31;;;;;;;5.55;2.72;;;33.90;45.50;;;;;;5042392;28;20303;-76
2023/06/14 10:25:01;;;;;;;5.35;2.63;;;34.10;45.10;;;;;;5038501;28;20227;-76
2023/06/14 10:27:27;;;;;;;4.38;2.83;;;34.20;44.10;;;;;;5040645;28;20248;-76
2023/06/14 10:30:05;;;;;;;4.53;2.65;;;34.30;44.70;;;;;;5039375;28;20251;-76
2023/06/14 10:32:33;;;;;;;5.00;2.70;;;34.30;44.60;;;;;;5021898;28;20310;-76
2023/06/14 10:35:02;;;;;;;3.95;2.60;;;34.40;44.60;;;;;;5043488;28;20303;-76
2023/06/14 10:37:29;;;;;;;4.53;2.35;;;34.50;44.40;;;;;;5025380;28;20551;-76
2023/06/14 10:39:55;;;;;;;6.13;2.78;;;34.50;44.20;;;;;;5037621;28;20224;-76
2023/06/14 10:42:29;;;;;;;4.25;2.53;;;34.40;44.30;;;;;;5037385;28;20217;-76
2023/06/14 10:44:56;;;;;;;5.70;2.78;;;34.20;43.70;;;;;;5023335;28;20249;-76
2023/06/14 10:47:28;;;;;;;3.50;2.90;;;34.10;44.10;;;;;;5038081;28;20219;-76
2023/06/14 10:49:56;;;;;;;5.18;2.90;;;34.00;43.00;;;;;;5040031;28;20319;-76
2023/06/14 10:52:27;;;;;;;3.63;2.70;;;33.80;43.20;;;;;;5021089;28;20281;-76
2023/06/14 10:55:12;;;;;;;5.43;2.95;;;33.70;43.30;;;;;;5038554;28;20649;-76
2023/06/14 10:57:42;;;;;;;3.85;2.72;;;33.40;43.20;;;;;;5033660;28;20228;-76
2023/06/14 11:00:15;;;;;;;3.50;2.60;;;33.30;43.40;;;;;;5033830;28;20228;-76
2023/06/14 11:03:22;;;;;;;5.15;2.72;;;33.00;43.60;;;;;;5039468;28;20302;-76
2023/06/14 11:05:52;;;;;;;4.45;2.72;;;32.60;43.70;;;;;;5033307;28;20217;-76
2023/06/14 11:08:41;;;;;;;6.22;2.63;;;32.30;44.00;;;;;;5041689;28;20219;-76
2023/06/14 11:11:09;;;;;;;4.88;2.78;;;31.90;44.40;;;;;;5040313;28;20228;-76
2023/06/14 11:13:39;;;;;;;3.15;2.47;;;31.70;45.00;;;;;;5039865;28;20255;-76
2023/06/14 11:16:12;;;;;;;4.32;2.70;;;31.50;44.70;;;;;;5038639;28;20224;-76
2023/06/14 11:18:39;;;;;;;6.18;2.55;;;31.30;45.40;;;;;;5038572;28;20224;-76
2023/06/14 11:21:05;;;;;;;8.73;2.95;;;31.30;45.70;;;;;;5041506;28;20230;-76
2023/06/14 11:23:32;;;;;;;4.38;2.85;;;31.30;45.70;;;;;;5039689;28;20716;-76
2023/06/14 11:25:59;;;;;;;6.63;2.70;;;31.30;45.30;;;;;;5032294;28;20748;-76
2023/06/14 11:28:25;;;;;;;4.90;2.85;;;31.20;45.20;;;;;;5018141;28;20732;-76
2023/06/14 11:31:02;;;;;;;5.03;2.83;;;31.00;45.40;;;;;;5037704;28;20732;-76
2023/06/14 11:33:29;;;;;;;5.25;2.65;;;30.80;45.70;;;;;;5012740;28;20236;-76
2023/06/14 11:35:55;;;;;;;4.18;2.60;;;30.70;45.80;;;;;;5043457;28;20611;-76
2023/06/14 11:38:22;;;;;;;4.78;2.53;;;30.60;46.20;;;;;;5043623;28;20231;-76
2023/06/14 11:40:49;;;;;;;4.47;2.38;;;30.70;46.50;;;;;;5017795;28;20307;-76
2023/06/14 11:43:17;;;;;;;5.70;2.40;;;30.90;46.80;;;;;;5041137;28;20315;-76
2023/06/14 11:45:43;;;;;;;2.75;2.30;;;31.10;46.00;;;;;;5035713;28;20641;-76
2023/06/14 11:48:11;;;;;;;3.35;2.47;;;31.30;46.10;;;;;;5039871;28;20220;-76
2023/06/14 11:50:39;;;;;;;6.05;2.85;;;31.60;45.90;;;;;;5020723;28;20612;-76
2023/06/14 11:53:07;;;;;;;6.40;2.40;;;31.90;45.90;;;;;;5042456;28;20224;-76
2023/06/14 11:55:37;;;;;;;8.95;3.35;;;32.20;46.50;;;;;;5042262;28;20236;-75
2023/06/14 11:58:04;;;;;;;6.32;2.78;;;32.60;45.40;;;;;;5037388;28;20335;-75
2023/06/14 12:00:31;;;;;;;6.28;2.63;;;33.00;45.00;;;;;;5036648;28;20951;-75
2023/06/14 12:02:58;;;;;;;4.07;2.50;;;33.10;44.30;;;;;;5036342;28;20961;-75
2023/06/14 12:05:27;;;;;;;2.55;2.33;;;33.20;43.90;;;;;;5039978;28;20235;-76
2023/06/14 12:07:59;;;;;;;3.78;2.33;;;33.20;43.40;;;;;;5024780;28;20830;-75
2023/06/14 12:10:27;;;;;;;5.80;2.90;;;33.10;43.10;;;;;;5030615;28;20227;-75
2023/06/14 12:12:59;;;;;;;5.20;3.00;;;32.80;42.90;;;;;;5043007;28;20929;-75
2023/06/14 12:15:25;;;;;;;3.38;2.80;;;32.60;43.00;;;;;;5047315;28;20303;-75
2023/06/14 12:17:52;;;;;;;5.57;2.72;;;32.20;44.00;;;;;;5024752;28;20243;-76
2023/06/14 12:20:21;;;;;;;4.80;2.50;;;31.90;44.00;;;;;;5046305;28;20231;-75
2023/06/14 12:22:52;;;;;;;5.25;2.75;;;31.50;43.80;;;;;;5046817;28;20227;-75
2023/06/14 12:25:28;;;;;;;5.18;2.92;;;31.20;43.80;;;;;;5045324;28;20273;-75
2023/06/14 12:27:55;;;;;;;5.43;2.95;;;31.10;44.60;;;;;;5036840;28;20824;-75
2023/06/14 12:30:22;;;;;;;3.80;2.38;;;30.90;44.70;;;;;;5043820;28;20247;-75
2023/06/14 12:32:51;;;;;;;7.63;2.38;;;30.80;44.40;;;;;;5046234;28;20733;-75
2023/06/14 12:35:18;;;;;;;4.68;2.63;;;30.80;44.80;;;;;;5042911;28;20365;-75
2023/06/14 12:37:45;;;;;;;9.43;3.03;;;30.80;45.00;;;;;;5042024;28;20277;-76
2023/06/14 12:40:14;;;;;;;3.05;2.30;;;30.90;45.20;;;;;;5027683;28;20769;-75
2023/06/14 12:42:42;;;;;;;3.83;2.72;;;30.90;45.00;;;;;;5041439;28;20688;-75
2023/06/14 12:45:10;;;;;;;3.28;2.20;;;31.10;45.00;;;;;;5025075;28;20216;-75
2023/06/14 12:47:36;;;;;;;4.22;2.50;;;31.40;45.00;;;;;;5040497;28;20928;-75
2023/06/14 12:50:04;;;;;;;5.45;2.60;;;31.60;43.90;;;;;;5039654;28;20331;-75
2023/06/14 12:52:30;;;;;;;4.03;2.47;;;31.70;43.70;;;;;;5044009;28;20228;-75
2023/06/14 12:54:57;;;;;;;5.38;2.55;;;31.80;43.90;;;;;;5042868;28;20303;-75